RJTY/OKO METAR and TAF weather

Enter ICAO airport designator
Station Type Date Time Source
RJTY METAR 2022/06/27 17:56 UTC NOAA

RJTY 271756Z 00000KT 10SM FEW180 24/21 A2992 RMK AO2A SLP131 T02410208 10279 20240 57009 $


Station Type Date Time Source
RJTY Decoded METAR 2022/06/27 17:56 UTC NOAA

Yokota Ab, Japan (RJTY) 35-45N 139-21E 142M
Jun 27, 2022 - 01:56 PM EDT / 2022.06.27 1756 UTC
Wind: Calm:0
Visibility: 10 mile(s):0
Sky conditions: mostly clear
Temperature: 75.4 F (24.1 C)
Dew Point: 69.4 F (20.8 C)
Relative Humidity: 81%
Pressure (altimeter): 29.92 in. Hg (1013 hPa)
Pressure tendency: 0.03 inches (0.9 hPa) lower than three hours ago
ob: RJTY 271756Z 00000KT 10SM FEW180 24/21 A2992 RMK AO2A SLP131 T02410208 10279 20240 57009
cycle: 18

Station Type Date Time Source
RJTY TAF 2022/06/27 13:08 UTC NOAA

TAF RJTY 271300Z 2713/2819 VRB06KT 9999 SCT100 QNH2989INS
BECMG 2802/2803 12009KT 9999 FEW050 FEW100 SCT150 QNH2981INS
TEMPO 2805/2809 26012G18KT VCTS SCT030CB BKN050
BECMG 2809/2810 VRB06KT 9999 FEW050 SCT070 QNH2982INS TX35/2805Z TN25/2718Z

Example: see airport list